Bydgoszcz, Poland
Current Conditions -  °F | °C
As of 4:30 PM on Thursday 30 Oct 2014 (Local Time) from EPBY Reporting Station
Broken Clouds Broken Clouds  
Wind Chill: 44°   Ceiling: 1300
Heat Index: 46°   Visibility: 5mi
Dew Point: 41°   Wind: 5mph
Humidity: 81%   Direction: 270°W
Pressure: 30.24"   Gusts: NA
Location:  53.12°N, 17.99°E
Report Text: EPBY 301430Z 27004KT 8000 BKN013 08/05 Q1024
Loading
Personal Weather Stations






























Interactive Weather Map
Tropical Storm Tracking
New forecast layout! Learn more

10-Day Weather Forecast

Advertisements
Track Severe Weather on mobile